Terminal Aerodrome Forecast
Issued by NWS

Current Version | Previous Version | Text Only | Print | Product List | Glossary On
Versions: 1 2 3 4 5 6 7 8 9 10 11 12 13 14
000
FTUS45 KLKN 231128
TAFWMC
TAF
KWMC 231128Z 2312/2412 29006KT P6SM BKN150 BKN200
     FM231800 25015G25KT P6SM SCT150 BKN200
     FM240200 26010KT P6SM BKN200
     FM240800 25005KT P6SM OVC100
     FM241000 26006KT P6SM -RA OVC040=

USA.gov is the U.S. government's official web portal to all federal, state and local government web resources and services.